Time;durP1;ratioP1;P1;durP2;ratioP2;P2;SDS_P1;SDS_P2;PMS_P1;PMS_P2;Temp;Humidity;BMP_temperature;BMP_pressure;BME280_temperature;BME280_humidity;BME280_pressure;Samples;Min_cycle;Max_cycle;Signal;HPM_P1;HPM_P2
2023/04/10 00:00:18;;;;;;;27.92;20.90;;;;;;;;;;5081324;28;20052;-76
2023/04/10 00:02:44;;;;;;;30.38;21.40;;;;;;;;;;5096422;28;20060;-76
2023/04/10 00:05:10;;;;;;;31.65;21.63;;;;;;;;;;5096034;28;20040;-76
2023/04/10 00:07:36;;;;;;;32.97;22.38;;;;;;;;;;5085235;28;20467;-76
2023/04/10 00:10:03;;;;;;;32.20;22.20;;;;;;;;;;5090321;28;20042;-76
2023/04/10 00:12:29;;;;;;;32.15;20.63;;;;;;;;;;5095487;28;20036;-76
2023/04/10 00:14:55;;;;;;;34.95;23.50;;;;;;;;;;5096708;28;20044;-76
2023/04/10 00:17:21;;;;;;;31.35;23.00;;;;;;;;;;5096255;28;20158;-76
2023/04/10 00:19:47;;;;;;;34.47;23.33;;;;;;;;;;5095638;28;20083;-76
2023/04/10 00:22:13;;;;;;;33.80;23.20;;;;;;;;;;5096580;28;20101;-76
2023/04/10 00:24:39;;;;;;;34.40;23.20;;;;;;;;;;5077654;28;20090;-76
2023/04/10 00:27:06;;;;;;;35.35;22.92;;;;;;;;;;5075072;28;20049;-75
2023/04/10 00:29:32;;;;;;;33.63;23.70;;;;;;;;;;5076382;28;20037;-76
2023/04/10 00:31:58;;;;;;;36.95;24.42;;;;;;;;;;5075992;28;20051;-76
2023/04/10 00:34:24;;;;;;;37.08;24.38;;;;;;;;;;5057818;28;20052;-76
2023/04/10 00:36:50;;;;;;;38.55;25.25;;;;;;;;;;5095659;28;20063;-76
2023/04/10 00:39:16;;;;;;;35.03;23.67;;;;;;;;;;5089127;28;20045;-76
2023/04/10 00:41:42;;;;;;;39.30;25.33;;;;;;;;;;5076896;28;20080;-76
2023/04/10 00:44:09;;;;;;;37.20;25.27;;;;;;;;;;5094178;28;20036;-76
2023/04/10 00:46:36;;;;;;;38.58;26.48;;;;;;;;;;5095868;28;20093;-76
2023/04/10 00:49:02;;;;;;;36.83;25.38;;;;;;;;;;5095915;28;20115;-76
2023/04/10 00:51:30;;;;;;;37.47;25.58;;;;;;;;;;5094838;28;20044;-76
2023/04/10 00:53:56;;;;;;;39.58;26.45;;;;;;;;;;5082594;28;20071;-76
2023/04/10 00:56:24;;;;;;;43.45;27.10;;;;;;;;;;5095177;28;20036;-75
2023/04/10 00:58:50;;;;;;;41.08;28.15;;;;;;;;;;5095873;28;20068;-76
2023/04/10 01:01:16;;;;;;;42.05;27.40;;;;;;;;;;5096003;28;20250;-76
2023/04/10 01:03:43;;;;;;;41.33;28.08;;;;;;;;;;5095884;28;20055;-76
2023/04/10 01:06:26;;;;;;;38.85;27.35;;;;;;;;;;5082380;28;20052;-76
2023/04/10 01:08:58;;;;;;;42.00;28.63;;;;;;;;;;5091995;28;20044;-76
2023/04/10 01:11:36;;;;;;;41.60;26.83;;;;;;;;;;5073966;28;20056;-76
2023/04/10 01:14:15;;;;;;;42.58;28.00;;;;;;;;;;5095599;28;20482;-76
2023/04/10 01:17:02;;;;;;;42.85;29.42;;;;;;;;;;5095059;28;20056;-76
2023/04/10 01:19:40;;;;;;;40.45;27.92;;;;;;;;;;5077452;28;20052;-77
2023/04/10 01:22:10;;;;;;;43.85;28.58;;;;;;;;;;5065618;28;20513;-76
2023/04/10 01:24:45;;;;;;;44.70;30.50;;;;;;;;;;5095323;28;20044;-76
2023/04/10 01:27:15;;;;;;;43.78;30.08;;;;;;;;;;5095291;28;20047;-76
2023/04/10 01:29:46;;;;;;;44.20;29.98;;;;;;;;;;5095241;28;20040;-76
2023/04/10 01:32:13;;;;;;;42.08;29.63;;;;;;;;;;5095203;28;20040;-76
2023/04/10 01:34:41;;;;;;;44.97;29.98;;;;;;;;;;5085077;28;20509;-76
2023/04/10 01:37:16;;;;;;;42.30;29.73;;;;;;;;;;5080050;28;20036;-76
2023/04/10 01:39:42;;;;;;;42.10;29.45;;;;;;;;;;5094570;28;20424;-76
2023/04/10 01:42:10;;;;;;;43.80;29.23;;;;;;;;;;5073481;28;20098;-76
2023/04/10 01:44:36;;;;;;;44.63;30.10;;;;;;;;;;5074490;28;20041;-77
2023/04/10 01:47:05;;;;;;;46.10;30.55;;;;;;;;;;5074740;28;20417;-77
2023/04/10 01:49:32;;;;;;;44.65;29.88;;;;;;;;;;5074631;28;20055;-77
2023/04/10 01:51:59;;;;;;;42.47;29.63;;;;;;;;;;5087269;28;20486;-76
2023/04/10 01:54:26;;;;;;;43.28;29.77;;;;;;;;;;5094330;28;20040;-76
2023/04/10 01:56:52;;;;;;;40.75;28.63;;;;;;;;;;5076520;28;20045;-76
2023/04/10 01:59:19;;;;;;;41.33;29.30;;;;;;;;;;5074087;28;20509;-76
2023/04/10 02:01:45;;;;;;;44.17;30.05;;;;;;;;;;5074649;28;20048;-76
2023/04/10 02:04:11;;;;;;;45.63;29.85;;;;;;;;;;5079786;28;20383;-76
2023/04/10 02:06:44;;;;;;;45.60;30.85;;;;;;;;;;5079833;28;20040;-76
2023/04/10 02:09:22;;;;;;;43.13;30.05;;;;;;;;;;5074504;28;20044;-76
2023/04/10 02:11:58;;;;;;;46.00;29.77;;;;;;;;;;5056669;28;20051;-76
2023/04/10 02:14:28;;;;;;;45.58;31.65;;;;;;;;;;5081061;28;20126;-76
2023/04/10 02:16:54;;;;;;;44.55;29.58;;;;;;;;;;5093649;28;20086;-76
2023/04/10 02:19:22;;;;;;;46.60;31.70;;;;;;;;;;5094004;28;20083;-76
2023/04/10 02:21:48;;;;;;;44.58;30.60;;;;;;;;;;5094247;28;20094;-76
2023/04/10 02:24:14;;;;;;;42.67;29.10;;;;;;;;;;5094183;28;20044;-76
2023/04/10 02:26:47;;;;;;;43.13;30.65;;;;;;;;;;5094168;28;20089;-76
2023/04/10 02:29:13;;;;;;;40.53;29.58;;;;;;;;;;5093301;28;20486;-76
2023/04/10 02:31:40;;;;;;;41.75;29.15;;;;;;;;;;5093774;28;20517;-76
2023/04/10 02:34:06;;;;;;;44.97;30.83;;;;;;;;;;5092119;28;20097;-76
2023/04/10 02:36:32;;;;;;;44.55;29.27;;;;;;;;;;5094003;28;20044;-76
2023/04/10 02:38:59;;;;;;;46.53;30.10;;;;;;;;;;5076169;28;20036;-76
2023/04/10 02:41:25;;;;;;;43.58;29.35;;;;;;;;;;5073446;28;20144;-76
2023/04/10 02:43:51;;;;;;;44.13;29.88;;;;;;;;;;5086826;28;20118;-77
2023/04/10 02:46:17;;;;;;;48.42;31.17;;;;;;;;;;5093646;28;20044;-77
2023/04/10 02:48:43;;;;;;;47.67;31.10;;;;;;;;;;5092442;28;20048;-76
2023/04/10 02:51:09;;;;;;;48.38;31.60;;;;;;;;;;5094109;28;20119;-77
2023/04/10 02:53:35;;;;;;;44.88;30.92;;;;;;;;;;5094518;28;20055;-76
2023/04/10 02:56:02;;;;;;;45.42;29.83;;;;;;;;;;5089960;28;20041;-76
2023/04/10 02:58:31;;;;;;;46.55;32.85;;;;;;;;;;5077546;28;20052;-76
2023/04/10 03:00:57;;;;;;;46.00;31.60;;;;;;;;;;5075095;28;20071;-76
2023/04/10 03:03:23;;;;;;;43.70;30.92;;;;;;;;;;5085580;28;20111;-76
2023/04/10 03:05:49;;;;;;;48.30;32.40;;;;;;;;;;5094145;28;20036;-77
2023/04/10 03:08:16;;;;;;;46.20;32.75;;;;;;;;;;5092894;28;20036;-77
2023/04/10 03:10:47;;;;;;;45.47;31.17;;;;;;;;;;5078242;28;20040;-76
2023/04/10 03:13:13;;;;;;;46.35;32.63;;;;;;;;;;5083641;28;20053;-76
2023/04/10 03:15:39;;;;;;;46.78;32.35;;;;;;;;;;5077407;28;20048;-76
2023/04/10 03:18:05;;;;;;;45.75;32.38;;;;;;;;;;5077362;28;20131;-77
2023/04/10 03:20:32;;;;;;;52.35;32.97;;;;;;;;;;5077419;28;20056;-76
2023/04/10 03:22:58;;;;;;;47.47;32.75;;;;;;;;;;5077457;28;20533;-76
2023/04/10 03:25:25;;;;;;;48.67;31.83;;;;;;;;;;5077208;28;20108;-75
2023/04/10 03:27:51;;;;;;;48.53;32.97;;;;;;;;;;5087976;28;20076;-76
2023/04/10 03:30:17;;;;;;;48.78;32.88;;;;;;;;;;5097664;28;20127;-75
2023/04/10 03:32:43;;;;;;;48.35;32.90;;;;;;;;;;5096826;28;20048;-75
2023/04/10 03:35:10;;;;;;;49.20;32.55;;;;;;;;;;5077875;28;20055;-75
2023/04/10 03:37:36;;;;;;;46.72;33.13;;;;;;;;;;5092010;28;20048;-75
2023/04/10 03:40:05;;;;;;;48.92;34.38;;;;;;;;;;5077786;28;20040;-75
2023/04/10 03:42:31;;;;;;;51.40;33.88;;;;;;;;;;5079015;28;20098;-76
2023/04/10 03:44:57;;;;;;;47.67;32.90;;;;;;;;;;5094963;28;20043;-76
2023/04/10 03:47:24;;;;;;;50.35;33.85;;;;;;;;;;5086157;28;20047;-76
2023/04/10 03:49:50;;;;;;;52.22;34.47;;;;;;;;;;5094296;28;20040;-74
2023/04/10 03:52:16;;;;;;;47.95;35.15;;;;;;;;;;5080365;28;20055;-74
2023/04/10 03:54:42;;;;;;;53.38;35.83;;;;;;;;;;5097188;28;20040;-74
2023/04/10 03:57:08;;;;;;;50.15;36.17;;;;;;;;;;5088020;28;20048;-74
2023/04/10 03:59:34;;;;;;;50.85;35.05;;;;;;;;;;5095774;28;20085;-74
2023/04/10 04:02:00;;;;;;;51.50;36.67;;;;;;;;;;5096643;28;20105;-74
2023/04/10 04:04:26;;;;;;;56.05;36.78;;;;;;;;;;5091750;28;20047;-74
2023/04/10 04:06:53;;;;;;;52.08;36.22;;;;;;;;;;5091376;28;20044;-75
2023/04/10 04:09:19;;;;;;;54.90;37.45;;;;;;;;;;5085628;28;20045;-75
2023/04/10 04:11:45;;;;;;;57.97;37.88;;;;;;;;;;5091168;28;20068;-74
2023/04/10 04:14:11;;;;;;;57.78;37.95;;;;;;;;;;5095180;28;20075;-74
2023/04/10 04:16:37;;;;;;;55.33;37.58;;;;;;;;;;5096133;28;20143;-74
2023/04/10 04:19:03;;;;;;;56.40;39.38;;;;;;;;;;5081605;28;20119;-74
2023/04/10 04:21:30;;;;;;;55.45;37.42;;;;;;;;;;5079570;28;20115;-74
2023/04/10 04:23:56;;;;;;;55.00;37.63;;;;;;;;;;5075562;28;20048;-74
2023/04/10 04:26:23;;;;;;;55.13;37.42;;;;;;;;;;5074973;28;20045;-74
2023/04/10 04:28:50;;;;;;;57.28;37.95;;;;;;;;;;5076248;28;20147;-74
2023/04/10 04:31:16;;;;;;;53.35;36.30;;;;;;;;;;5074877;28;20045;-74
2023/04/10 04:33:42;;;;;;;54.05;37.65;;;;;;;;;;5076407;28;20080;-74
2023/04/10 04:36:08;;;;;;;52.22;36.55;;;;;;;;;;5079096;28;20059;-75
2023/04/10 04:38:34;;;;;;;51.03;34.90;;;;;;;;;;5095581;28;20044;-75
2023/04/10 04:41:00;;;;;;;53.05;36.50;;;;;;;;;;5096247;28;20052;-75
2023/04/10 04:43:26;;;;;;;51.47;35.58;;;;;;;;;;5096013;28;20074;-74
2023/04/10 04:45:52;;;;;;;52.72;35.33;;;;;;;;;;5096044;28;20046;-74
2023/04/10 04:48:18;;;;;;;52.15;34.58;;;;;;;;;;5096004;28;20040;-74
2023/04/10 04:50:45;;;;;;;45.83;33.08;;;;;;;;;;5075299;28;20040;-74
2023/04/10 04:53:11;;;;;;;52.65;33.78;;;;;;;;;;5084841;28;20106;-74
2023/04/10 04:55:37;;;;;;;50.28;33.83;;;;;;;;;;5075735;28;20048;-74
2023/04/10 04:58:03;;;;;;;47.83;32.53;;;;;;;;;;5075721;28;20452;-74
2023/04/10 05:00:29;;;;;;;49.05;32.83;;;;;;;;;;5074780;28;20055;-74
2023/04/10 05:02:55;;;;;;;42.75;30.50;;;;;;;;;;5075736;28;20453;-75
2023/04/10 05:05:21;;;;;;;46.05;31.75;;;;;;;;;;5075590;28;20127;-75
2023/04/10 05:07:47;;;;;;;41.88;30.25;;;;;;;;;;5089702;28;20074;-75
2023/04/10 05:10:14;;;;;;;43.10;30.63;;;;;;;;;;5095802;28;20065;-75
2023/04/10 05:12:42;;;;;;;44.45;30.83;;;;;;;;;;5095913;28;20190;-75
2023/04/10 05:15:08;;;;;;;42.92;29.73;;;;;;;;;;5095302;28;20048;-75
2023/04/10 05:17:34;;;;;;;44.00;29.45;;;;;;;;;;5077077;28;20059;-75
2023/04/10 05:20:00;;;;;;;43.05;28.85;;;;;;;;;;5095540;28;20056;-75
2023/04/10 05:22:27;;;;;;;41.20;28.27;;;;;;;;;;5094658;28;20119;-75
2023/04/10 05:24:54;;;;;;;38.97;27.77;;;;;;;;;;5095435;28;20177;-75
2023/04/10 05:27:21;;;;;;;44.00;28.08;;;;;;;;;;5095324;28;20075;-75
2023/04/10 05:29:47;;;;;;;40.80;27.75;;;;;;;;;;5092713;28;20072;-75
2023/04/10 05:32:13;;;;;;;40.65;27.38;;;;;;;;;;5095374;28;20040;-75
2023/04/10 05:34:39;;;;;;;40.58;27.73;;;;;;;;;;5095416;28;20051;-76
2023/04/10 05:37:05;;;;;;;40.05;27.92;;;;;;;;;;5095234;28;20051;-76
2023/04/10 05:39:31;;;;;;;40.28;26.98;;;;;;;;;;5095071;28;20477;-75
2023/04/10 05:41:57;;;;;;;40.92;27.70;;;;;;;;;;5095252;28;20085;-75
2023/04/10 05:44:23;;;;;;;39.50;26.83;;;;;;;;;;5093214;28;20037;-75
2023/04/10 05:46:50;;;;;;;40.42;27.17;;;;;;;;;;5078921;28;20040;-75
2023/04/10 05:49:16;;;;;;;38.50;27.02;;;;;;;;;;5074738;28;20044;-75
2023/04/10 05:51:42;;;;;;;38.80;26.33;;;;;;;;;;5074883;28;20036;-75
2023/04/10 05:54:08;;;;;;;43.67;26.40;;;;;;;;;;5074456;28;20043;-75
2023/04/10 05:56:34;;;;;;;37.08;26.67;;;;;;;;;;5074419;28;20083;-75
2023/04/10 05:59:00;;;;;;;36.80;25.08;;;;;;;;;;5075003;28;20091;-75
2023/04/10 06:01:26;;;;;;;37.58;25.90;;;;;;;;;;5090799;28;20044;-75
2023/04/10 06:03:52;;;;;;;34.95;24.77;;;;;;;;;;5099223;28;20124;-75
2023/04/10 06:06:20;;;;;;;33.70;23.60;;;;;;;;;;5095375;28;20120;-75
2023/04/10 06:08:46;;;;;;;33.65;24.52;;;;;;;;;;5094719;28;20075;-75
2023/04/10 06:11:12;;;;;;;34.88;24.90;;;;;;;;;;5094542;28;20044;-75
2023/04/10 06:13:38;;;;;;;35.33;23.33;;;;;;;;;;5094692;28;20044;-75
2023/04/10 06:16:05;;;;;;;32.53;22.83;;;;;;;;;;5093577;28;20047;-76
2023/04/10 06:18:31;;;;;;;33.50;22.73;;;;;;;;;;5094822;28;20095;-75
2023/04/10 06:20:59;;;;;;;34.88;22.83;;;;;;;;;;5094272;28;20631;-76
2023/04/10 06:23:25;;;;;;;32.60;23.38;;;;;;;;;;5094201;28;20056;-76
2023/04/10 06:25:51;;;;;;;32.22;22.33;;;;;;;;;;5093713;28;20080;-76
2023/04/10 06:28:17;;;;;;;30.80;22.10;;;;;;;;;;5094775;28;20063;-76
2023/04/10 06:30:43;;;;;;;32.83;21.33;;;;;;;;;;5093050;28;20115;-75
2023/04/10 06:33:09;;;;;;;32.00;22.25;;;;;;;;;;5088919;28;20444;-75
2023/04/10 06:35:36;;;;;;;31.33;22.05;;;;;;;;;;5073950;28;20044;-76
2023/04/10 06:38:02;;;;;;;31.92;20.08;;;;;;;;;;5073823;28;20040;-76
2023/04/10 06:40:29;;;;;;;30.42;20.42;;;;;;;;;;5073314;28;20093;-76
2023/04/10 06:42:56;;;;;;;33.03;21.17;;;;;;;;;;5082239;28;20080;-76
2023/04/10 06:45:22;;;;;;;30.50;19.60;;;;;;;;;;5092545;28;20059;-76
2023/04/10 06:47:48;;;;;;;29.08;19.42;;;;;;;;;;5093893;28;20055;-76
2023/04/10 06:50:14;;;;;;;26.27;18.85;;;;;;;;;;5077908;28;20040;-76
2023/04/10 06:52:40;;;;;;;27.08;18.42;;;;;;;;;;5073636;28;20090;-75
2023/04/10 06:55:06;;;;;;;27.50;18.55;;;;;;;;;;5073087;28;20166;-76
2023/04/10 06:57:32;;;;;;;27.02;17.98;;;;;;;;;;5074022;28;20123;-76
2023/04/10 06:59:58;;;;;;;23.67;17.42;;;;;;;;;;5078845;28;20044;-76
2023/04/10 07:02:24;;;;;;;25.75;17.02;;;;;;;;;;5073824;28;20052;-76
2023/04/10 07:04:51;;;;;;;22.95;17.55;;;;;;;;;;5073526;28;20459;-76
2023/04/10 07:07:18;;;;;;;25.98;17.45;;;;;;;;;;5073764;28;20123;-76
2023/04/10 07:09:44;;;;;;;23.98;17.48;;;;;;;;;;5073437;28;20066;-76
2023/04/10 07:12:10;;;;;;;23.00;15.60;;;;;;;;;;5073258;28;20505;-76
2023/04/10 07:14:36;;;;;;;22.98;15.80;;;;;;;;;;5080700;28;20422;-76
2023/04/10 07:17:02;;;;;;;22.17;16.15;;;;;;;;;;5092518;28;20078;-76
2023/04/10 07:19:28;;;;;;;20.45;14.88;;;;;;;;;;5093521;28;20545;-75
2023/04/10 07:21:54;;;;;;;19.80;15.32;;;;;;;;;;5093559;28;20048;-76
2023/04/10 07:24:20;;;;;;;20.20;14.60;;;;;;;;;;5092148;28;20084;-76
2023/04/10 07:26:47;;;;;;;19.88;14.40;;;;;;;;;;5090593;28;20397;-74
2023/04/10 07:29:13;;;;;;;19.70;14.55;;;;;;;;;;5085411;28;20036;-75
2023/04/10 07:31:39;;;;;;;20.67;14.05;;;;;;;;;;5074393;28;20509;-74
2023/04/10 07:34:05;;;;;;;19.85;14.70;;;;;;;;;;5082052;28;20051;-74
2023/04/10 07:36:31;;;;;;;18.58;14.13;;;;;;;;;;5087052;28;20048;-75
2023/04/10 07:38:58;;;;;;;18.55;13.52;;;;;;;;;;5083993;28;20036;-75
2023/04/10 07:41:24;;;;;;;18.58;13.88;;;;;;;;;;5073351;28;20458;-74
2023/04/10 07:43:50;;;;;;;19.77;14.05;;;;;;;;;;5073061;28;20402;-74
2023/04/10 07:46:17;;;;;;;17.33;13.00;;;;;;;;;;5090232;28;20112;-74
2023/04/10 07:48:43;;;;;;;18.73;14.00;;;;;;;;;;5091626;28;20047;-74
2023/04/10 07:51:09;;;;;;;18.23;13.18;;;;;;;;;;5072729;28;20386;-75
2023/04/10 07:53:36;;;;;;;19.27;13.70;;;;;;;;;;5086929;28;20062;-77
2023/04/10 07:56:02;;;;;;;19.85;14.05;;;;;;;;;;5097375;28;20040;-75
2023/04/10 07:58:28;;;;;;;18.55;13.82;;;;;;;;;;5096782;28;20072;-75
2023/04/10 08:00:55;;;;;;;18.17;13.50;;;;;;;;;;5097232;28;20125;-75
2023/04/10 08:03:22;;;;;;;18.33;12.88;;;;;;;;;;5095558;28;20043;-75
2023/04/10 08:05:48;;;;;;;19.35;13.57;;;;;;;;;;5087019;28;20441;-75
2023/04/10 08:08:15;;;;;;;19.00;13.50;;;;;;;;;;5076427;28;20135;-75
2023/04/10 08:10:41;;;;;;;17.45;12.23;;;;;;;;;;5076636;28;20475;-75
2023/04/10 08:13:08;;;;;;;18.50;13.95;;;;;;;;;;5076236;28;20102;-74
2023/04/10 08:15:34;;;;;;;18.92;13.70;;;;;;;;;;5076000;28;20040;-75
2023/04/10 08:18:00;;;;;;;15.88;12.75;;;;;;;;;;5075982;28;20136;-75
2023/04/10 08:20:27;;;;;;;17.77;12.95;;;;;;;;;;5082860;28;20048;-75
2023/04/10 08:22:53;;;;;;;16.42;11.82;;;;;;;;;;5086381;28;20375;-75
2023/04/10 08:25:19;;;;;;;18.08;13.07;;;;;;;;;;5076284;28;20048;-75
2023/04/10 08:27:45;;;;;;;18.60;13.18;;;;;;;;;;5076157;28;20418;-75
2023/04/10 08:30:11;;;;;;;16.77;12.57;;;;;;;;;;5074908;28;20505;-75
2023/04/10 08:32:38;;;;;;;17.80;12.20;;;;;;;;;;5076516;28;20071;-75
2023/04/10 08:35:04;;;;;;;17.65;11.98;;;;;;;;;;5076135;28;20044;-75
2023/04/10 08:37:30;;;;;;;14.07;11.80;;;;;;;;;;5076251;28;20450;-75
2023/04/10 08:39:57;;;;;;;16.98;12.30;;;;;;;;;;5091807;28;20566;-75
2023/04/10 08:42:24;;;;;;;15.82;12.25;;;;;;;;;;5096228;28;20044;-75
2023/04/10 08:44:51;;;;;;;16.48;12.07;;;;;;;;;;5096406;28;20459;-76
2023/04/10 08:47:20;;;;;;;17.23;11.98;;;;;;;;;;5096056;28;20036;-75
2023/04/10 08:50:03;;;;;;;16.23;12.25;;;;;;;;;;5096326;28;20047;-75
2023/04/10 08:52:30;;;;;;;15.80;11.95;;;;;;;;;;5093202;28;20044;-74
2023/04/10 08:54:57;;;;;;;14.98;11.68;;;;;;;;;;5096407;28;20047;-75
2023/04/10 08:57:25;;;;;;;14.98;11.80;;;;;;;;;;5096567;28;20043;-75
2023/04/10 08:59:52;;;;;;;15.73;12.05;;;;;;;;;;5088468;28;20141;-75
2023/04/10 09:02:18;;;;;;;15.50;12.43;;;;;;;;;;5094561;28;20182;-75
2023/04/10 09:04:47;;;;;;;13.98;10.93;;;;;;;;;;5094467;28;20482;-75
2023/04/10 09:07:13;;;;;;;16.73;12.35;;;;;;;;;;5095847;28;20044;-75
2023/04/10 09:09:39;;;;;;;16.08;12.57;;;;;;;;;;5100217;28;20040;-74
2023/04/10 09:12:06;;;;;;;16.90;12.13;;;;;;;;;;5100574;28;20043;-75
2023/04/10 09:14:36;;;;;;;17.90;12.57;;;;;;;;;;5095407;28;20109;-75
2023/04/10 09:17:15;;;;;;;15.52;11.77;;;;;;;;;;5082037;28;20052;-75
2023/04/10 09:19:42;;;;;;;17.20;12.13;;;;;;;;;;5094114;28;20126;-75
2023/04/10 09:22:08;;;;;;;15.98;12.07;;;;;;;;;;5075102;28;20044;-75
2023/04/10 09:24:42;;;;;;;17.27;12.10;;;;;;;;;;5074916;28;20091;-75
2023/04/10 09:27:08;;;;;;;16.00;11.32;;;;;;;;;;5078449;28;20079;-75
2023/04/10 09:29:42;;;;;;;14.50;11.45;;;;;;;;;;5081205;28;20102;-75
2023/04/10 09:32:09;;;;;;;15.15;11.23;;;;;;;;;;5091939;28;20037;-75
2023/04/10 09:34:51;;;;;;;14.85;12.40;;;;;;;;;;5094884;28;20122;-75
2023/04/10 09:37:19;;;;;;;14.32;11.38;;;;;;;;;;5093638;28;20036;-75
2023/04/10 09:39:45;;;;;;;16.60;12.07;;;;;;;;;;5079087;28;20106;-75
2023/04/10 09:42:12;;;;;;;16.35;12.30;;;;;;;;;;5078259;28;20048;-75
2023/04/10 09:44:39;;;;;;;13.70;10.88;;;;;;;;;;5094055;28;20102;-75
2023/04/10 09:47:19;;;;;;;17.27;12.68;;;;;;;;;;5093621;28;20051;-75
2023/04/10 09:49:47;;;;;;;14.32;11.27;;;;;;;;;;5092772;28;20028;-75
2023/04/10 09:52:22;;;;;;;14.93;10.73;;;;;;;;;;5088152;28;20497;-75
2023/04/10 09:54:48;;;;;;;18.83;11.20;;;;;;;;;;5077943;28;20044;-75
2023/04/10 09:57:18;;;;;;;15.48;11.52;;;;;;;;;;5081764;28;20563;-75
2023/04/10 09:59:51;;;;;;;14.05;10.50;;;;;;;;;;5074440;28;20127;-72
2023/04/10 10:02:18;;;;;;;13.38;10.85;;;;;;;;;;5094815;28;20062;-73
2023/04/10 10:04:48;;;;;;;14.65;11.10;;;;;;;;;;5086565;28;20120;-73
2023/04/10 10:07:21;;;;;;;13.38;10.18;;;;;;;;;;5074230;28;20040;-73
2023/04/10 10:09:49;;;;;;;14.30;10.40;;;;;;;;;;5074408;28;20044;-73
2023/04/10 10:12:16;;;;;;;15.80;10.68;;;;;;;;;;5077298;28;20284;-74
2023/04/10 10:15:03;;;;;;;14.15;10.07;;;;;;;;;;5093067;28;20043;-74
2023/04/10 10:17:34;;;;;;;13.10;9.55;;;;;;;;;;5092678;28;20056;-74
2023/04/10 10:20:02;;;;;;;13.02;9.55;;;;;;;;;;5082337;28;20352;-74
2023/04/10 10:22:29;;;;;;;13.60;9.95;;;;;;;;;;5077484;28;20386;-73
2023/04/10 10:24:56;;;;;;;13.40;9.63;;;;;;;;;;5083547;28;20506;-74
2023/04/10 10:27:26;;;;;;;11.52;9.40;;;;;;;;;;5094214;28;20043;-73
2023/04/10 10:29:53;;;;;;;11.43;9.30;;;;;;;;;;5076817;28;20119;-74
2023/04/10 10:32:20;;;;;;;11.18;9.15;;;;;;;;;;5085117;28;20040;-73
2023/04/10 10:34:46;;;;;;;12.15;9.35;;;;;;;;;;5092461;28;20563;-74
2023/04/10 10:37:13;;;;;;;10.77;8.77;;;;;;;;;;5092686;28;20059;-74
2023/04/10 10:40:00;;;;;;;12.65;9.20;;;;;;;;;;5078631;28;20087;-74
2023/04/10 10:42:26;;;;;;;12.32;9.45;;;;;;;;;;5077740;28;20051;-74
2023/04/10 10:44:55;;;;;;;11.05;9.48;;;;;;;;;;5073754;28;20033;-74
2023/04/10 10:47:29;;;;;;;10.40;8.80;;;;;;;;;;5085581;28;20470;-74
2023/04/10 10:49:58;;;;;;;11.25;9.13;;;;;;;;;;5090075;28;20044;-74
2023/04/10 10:52:37;;;;;;;10.70;8.65;;;;;;;;;;5092148;28;20094;-74
2023/04/10 10:55:21;;;;;;;26.08;10.55;;;;;;;;;;5082611;28;20041;-74
2023/04/10 10:58:00;;;;;;;11.98;9.50;;;;;;;;;;5083412;28;20040;-74
2023/04/10 11:00:46;;;;;;;12.75;9.45;;;;;;;;;;5090593;28;20044;-76
2023/04/10 11:03:12;;;;;;;11.23;8.25;;;;;;;;;;5090964;28;20420;-75
2023/04/10 11:05:53;;;;;;;12.43;8.88;;;;;;;;;;5087354;28;20049;-74
2023/04/10 11:08:35;;;;;;;12.70;9.77;;;;;;;;;;5082497;28;20120;-74
2023/04/10 11:11:05;;;;;;;13.45;9.48;;;;;;;;;;5084662;28;20040;-74
2023/04/10 11:13:31;;;;;;;11.38;8.82;;;;;;;;;;5087327;28;20059;-74
2023/04/10 11:15:58;;;;;;;12.45;10.30;;;;;;;;;;5077911;28;20066;-74
2023/04/10 11:18:43;;;;;;;12.48;9.52;;;;;;;;;;5073732;28;20056;-75
2023/04/10 11:21:10;;;;;;;11.57;9.20;;;;;;;;;;5073577;28;20048;-74
2023/04/10 11:23:36;;;;;;;13.10;9.18;;;;;;;;;;5073424;28;20045;-75
2023/04/10 11:26:02;;;;;;;11.70;9.30;;;;;;;;;;5073178;28;20375;-74
2023/04/10 11:28:34;;;;;;;12.45;9.48;;;;;;;;;;5093534;28;20036;-74
2023/04/10 11:31:19;;;;;;;12.32;9.68;;;;;;;;;;5079315;28;20123;-75
2023/04/10 11:33:46;;;;;;;10.88;8.30;;;;;;;;;;5078320;28;20044;-74
2023/04/10 11:36:19;;;;;;;13.38;9.05;;;;;;;;;;5077122;28;20059;-74
2023/04/10 11:38:54;;;;;;;10.98;8.63;;;;;;;;;;5084552;28;20524;-75
2023/04/10 11:41:21;;;;;;;11.85;8.60;;;;;;;;;;5097726;28;20051;-74
2023/04/10 11:43:50;;;;;;;12.48;8.77;;;;;;;;;;5097298;28;20055;-74
2023/04/10 11:46:17;;;;;;;10.88;8.30;;;;;;;;;;5089931;28;20047;-74
2023/04/10 11:48:43;;;;;;;11.20;8.27;;;;;;;;;;5089652;28;20044;-74
2023/04/10 11:51:10;;;;;;;10.30;8.00;;;;;;;;;;5075833;28;20432;-74
2023/04/10 11:53:37;;;;;;;10.30;8.15;;;;;;;;;;5091053;28;20071;-74
2023/04/10 11:56:06;;;;;;;10.07;7.97;;;;;;;;;;5085103;28;20047;-74
2023/04/10 11:58:32;;;;;;;10.95;8.20;;;;;;;;;;5087472;28;20050;-74
2023/04/10 12:01:13;;;;;;;11.07;7.85;;;;;;;;;;5082326;28;20115;-74
2023/04/10 12:03:40;;;;;;;11.30;8.35;;;;;;;;;;5094594;28;20067;-74
2023/04/10 12:06:08;;;;;;;11.80;8.63;;;;;;;;;;5096975;28;20044;-75
2023/04/10 12:08:35;;;;;;;14.00;9.98;;;;;;;;;;5091023;28;20044;-74
2023/04/10 12:11:02;;;;;;;14.65;9.50;;;;;;;;;;5081066;28;20044;-74
2023/04/10 12:13:29;;;;;;;16.33;9.98;;;;;;;;;;5076492;28;20051;-74
2023/04/10 12:15:58;;;;;;;13.68;10.02;;;;;;;;;;5076056;28;20048;-74
2023/04/10 12:18:25;;;;;;;11.50;8.55;;;;;;;;;;5076509;28;20483;-74
2023/04/10 12:20:55;;;;;;;13.02;9.00;;;;;;;;;;5076827;28;20129;-74
2023/04/10 12:23:21;;;;;;;11.35;8.77;;;;;;;;;;5081187;28;20055;-74
2023/04/10 12:25:47;;;;;;;13.65;8.70;;;;;;;;;;5079522;28;20131;-74
2023/04/10 12:28:20;;;;;;;11.73;8.93;;;;;;;;;;5076525;28;20047;-74
2023/04/10 12:30:51;;;;;;;9.38;7.53;;;;;;;;;;5076176;28;20051;-74
2023/04/10 12:33:24;;;;;;;9.63;7.78;;;;;;;;;;5076777;28;20051;-74
2023/04/10 12:35:51;;;;;;;9.18;7.30;;;;;;;;;;5076300;28;20048;-74
2023/04/10 12:38:36;;;;;;;9.38;7.43;;;;;;;;;;5076915;28;20059;-74
2023/04/10 12:41:03;;;;;;;9.25;7.22;;;;;;;;;;5075681;28;20505;-74
2023/04/10 12:43:40;;;;;;;8.73;7.63;;;;;;;;;;5076071;28;20048;-74
2023/04/10 12:46:06;;;;;;;8.43;6.78;;;;;;;;;;5082856;28;20044;-74
2023/04/10 12:48:33;;;;;;;9.00;7.63;;;;;;;;;;5096420;28;20044;-74
2023/04/10 12:50:59;;;;;;;9.10;7.00;;;;;;;;;;5096151;28;20126;-74
2023/04/10 12:53:26;;;;;;;9.07;7.63;;;;;;;;;;5095893;28;20127;-74
2023/04/10 12:56:00;;;;;;;10.07;7.72;;;;;;;;;;5095111;28;20113;-74
2023/04/10 12:58:27;;;;;;;9.57;7.25;;;;;;;;;;5095930;28;20090;-74
2023/04/10 13:00:54;;;;;;;15.05;8.15;;;;;;;;;;5092842;28;20535;-74
2023/04/10 13:03:20;;;;;;;9.40;7.80;;;;;;;;;;5075816;28;20048;-75
2023/04/10 13:05:47;;;;;;;9.88;7.65;;;;;;;;;;5075201;28;20502;-75
2023/04/10 13:08:13;;;;;;;14.13;8.68;;;;;;;;;;5075937;28;20046;-75
2023/04/10 13:10:42;;;;;;;11.00;8.55;;;;;;;;;;5075614;28;20040;-75
2023/04/10 13:13:12;;;;;;;10.90;8.05;;;;;;;;;;5075482;28;20135;-75
2023/04/10 13:15:38;;;;;;;11.10;8.52;;;;;;;;;;5079567;28;20046;-75
2023/04/10 13:18:09;;;;;;;10.68;7.85;;;;;;;;;;5095513;28;20086;-75
2023/04/10 13:20:35;;;;;;;11.45;8.63;;;;;;;;;;5095133;28;20047;-75
2023/04/10 13:23:04;;;;;;;10.77;8.18;;;;;;;;;;5095203;28;20466;-73
2023/04/10 13:25:38;;;;;;;10.65;8.32;;;;;;;;;;5095045;28;20048;-73
2023/04/10 13:28:08;;;;;;;12.10;8.52;;;;;;;;;;5095093;28;20055;-72
2023/04/10 13:30:35;;;;;;;13.23;9.13;;;;;;;;;;5093506;28;20076;-73
2023/04/10 13:33:01;;;;;;;13.10;8.52;;;;;;;;;;5095187;28;20052;-73
2023/04/10 13:35:27;;;;;;;9.73;8.20;;;;;;;;;;5094952;28;20084;-73
2023/04/10 13:37:53;;;;;;;10.52;8.00;;;;;;;;;;5095014;28;20197;-74
2023/04/10 13:40:20;;;;;;;10.52;8.52;;;;;;;;;;5095031;28;20482;-74
2023/04/10 13:42:46;;;;;;;10.40;7.78;;;;;;;;;;5094865;28;20525;-74
2023/04/10 13:45:12;;;;;;;9.35;7.45;;;;;;;;;;5093472;28;20040;-73
2023/04/10 13:47:39;;;;;;;10.20;8.57;;;;;;;;;;5092743;28;20076;-73
2023/04/10 13:50:08;;;;;;;10.32;8.10;;;;;;;;;;5073828;28;20442;-73
2023/04/10 13:52:34;;;;;;;9.18;7.32;;;;;;;;;;5074261;28;20052;-73
2023/04/10 13:55:00;;;;;;;12.93;8.50;;;;;;;;;;5074629;28;20040;-73
2023/04/10 13:57:26;;;;;;;11.02;7.72;;;;;;;;;;5074241;28;20044;-73
2023/04/10 13:59:53;;;;;;;9.23;7.55;;;;;;;;;;5074089;28;20128;-74
2023/04/10 14:02:19;;;;;;;9.57;7.47;;;;;;;;;;5081968;28;20086;-74
2023/04/10 14:04:46;;;;;;;10.23;7.07;;;;;;;;;;5085698;28;20036;-74
2023/04/10 14:07:12;;;;;;;11.68;8.73;;;;;;;;;;5093296;28;20060;-73
2023/04/10 14:09:38;;;;;;;10.68;8.43;;;;;;;;;;5088799;28;20044;-73
2023/04/10 14:12:05;;;;;;;11.43;7.95;;;;;;;;;;5087969;28;20446;-73
2023/04/10 14:14:31;;;;;;;10.23;7.93;;;;;;;;;;5091070;28;20048;-73
2023/04/10 14:16:57;;;;;;;9.68;7.80;;;;;;;;;;5081048;28;20063;-73
2023/04/10 14:19:23;;;;;;;9.45;7.65;;;;;;;;;;5082797;28;20490;-73
2023/04/10 14:21:49;;;;;;;10.18;7.95;;;;;;;;;;5093829;28;20043;-73
2023/04/10 14:24:15;;;;;;;10.45;7.85;;;;;;;;;;5093235;28;20036;-73